Gooderham, Canada
Current Conditions -  °F | °C
As of 1:27 AM on Saturday 25 Oct 2014 (Local Time) from CYQA Reporting Station
Overcast Overcast  
Wind Chill: 39°   Ceiling: 2300
Heat Index: 39°   Visibility: 9mi
Dew Point: 39°   Wind: 0mph
Humidity: 100%   Direction: NA
Pressure: 29.85"   Gusts: NA
Location:  44.9°N, 78.38°W
Report Text: CYQA 250527Z AUTO 00000KT 9SM BKN023 OVC035 04/04 A2985 RMK SLP116
Loading
Personal Weather Stations






























Interactive Weather Map New forecast layout! Learn more

10-Day Weather Forecast

Advertisements
Track Severe Weather on mobile